createdAt,value
2022-11-27T00:01:31.194Z,35.77
2022-11-27T00:06:28.313Z,12.73
2022-11-27T00:11:25.876Z,12.97
2022-11-27T00:16:20.986Z,66.00
2022-11-27T00:21:19.119Z,101.07
2022-11-27T00:26:13.484Z,98.53
2022-11-27T00:31:09.607Z,56.13
2022-11-27T00:36:04.340Z,43.13
2022-11-27T00:41:07.057Z,29.87
2022-11-27T00:46:00.548Z,25.27
2022-11-27T00:50:54.049Z,14.20
2022-11-27T00:55:47.889Z,53.07
2022-11-27T01:00:42.801Z,93.07
2022-11-27T01:05:38.317Z,33.37
2022-11-27T01:10:32.116Z,35.53
2022-11-27T01:15:25.474Z,56.93
2022-11-27T01:20:20.448Z,85.03
2022-11-27T01:25:13.729Z,52.53
2022-11-27T01:30:09.156Z,47.50
2022-11-27T01:35:02.460Z,141.37
2022-11-27T01:39:57.124Z,29.27
2022-11-27T01:44:56.833Z,11.87
2022-11-27T01:49:54.846Z,16.57
2022-11-27T01:55:00.809Z,59.20
2022-11-27T01:59:59.043Z,47.97
2022-11-27T02:04:52.538Z,11.27
2022-11-27T02:09:46.117Z,40.87
2022-11-27T02:14:50.486Z,39.60
2022-11-27T02:20:12.032Z,68.30
2022-11-27T02:25:22.811Z,73.47
2022-11-27T02:30:22.034Z,19.97
2022-11-27T02:35:24.569Z,56.20
2022-11-27T02:40:28.523Z,41.03
2022-11-27T02:45:30.308Z,27.40
2022-11-27T02:50:28.744Z,24.17
2022-11-27T02:55:29.493Z,14.30
2022-11-27T03:00:24.635Z,15.87
2022-11-27T03:05:25.417Z,14.40
2022-11-27T03:10:25.270Z,14.67
2022-11-27T03:15:19.055Z,12.53
2022-11-27T03:20:22.733Z,14.53
2022-11-27T03:25:17.325Z,14.80
2022-11-27T03:30:15.007Z,12.90
2022-11-27T03:35:15.819Z,13.87
2022-11-27T03:40:11.926Z,13.70
2022-11-27T03:45:15.871Z,13.53
2022-11-27T03:50:28.336Z,12.57
2022-11-27T03:55:32.999Z,11.67
2022-11-27T04:00:28.802Z,13.90
2022-11-27T04:05:23.958Z,11.93
2022-11-27T04:10:17.448Z,11.77
2022-11-27T04:15:12.555Z,10.07
2022-11-27T04:20:08.075Z,12.13
2022-11-27T04:25:02.814Z,10.43
2022-11-27T04:29:56.241Z,10.80
2022-11-27T04:34:49.576Z,11.03
2022-11-27T04:39:42.962Z,12.27
2022-11-27T04:44:37.957Z,10.27
2022-11-27T04:49:31.651Z,8.67
2022-11-27T04:54:25.221Z,10.63
2022-11-27T04:59:18.601Z,9.90
2022-11-27T05:04:13.576Z,14.60
2022-11-27T05:09:06.946Z,17.40
2022-11-27T05:14:16.940Z,12.97
2022-11-27T05:19:14.163Z,14.77
2022-11-27T05:24:08.350Z,14.37
2022-11-27T05:29:02.060Z,17.40
2022-11-27T05:33:55.919Z,16.57
2022-11-27T05:38:50.678Z,17.07
2022-11-27T05:43:44.112Z,15.30
2022-11-27T05:48:38.391Z,15.50
2022-11-27T05:53:32.287Z,16.70
2022-11-27T05:58:27.175Z,15.87
2022-11-27T06:03:20.847Z,15.33
2022-11-27T06:08:14.232Z,14.70
2022-11-27T06:13:07.942Z,17.93
2022-11-27T06:18:03.751Z,15.30
2022-11-27T06:22:57.765Z,18.73
2022-11-27T06:27:51.568Z,15.40
2022-11-27T06:32:44.852Z,17.90
2022-11-27T06:37:39.605Z,16.90
2022-11-27T06:42:33.050Z,16.10
2022-11-27T06:47:26.538Z,18.10
2022-11-27T06:52:21.759Z,14.70
2022-11-27T06:57:16.537Z,16.03
2022-11-27T07:02:15.671Z,22.43
2022-11-27T07:07:09.048Z,18.97
2022-11-27T07:12:02.466Z,19.37
2022-11-27T07:16:57.277Z,16.87
2022-11-27T07:21:50.766Z,16.90
2022-11-27T07:26:44.208Z,18.13
2022-11-27T07:31:37.603Z,17.67
2022-11-27T07:36:32.591Z,15.43
2022-11-27T07:41:32.177Z,18.37
2022-11-27T07:46:27.384Z,18.63
2022-11-27T07:51:22.835Z,15.13
2022-11-27T07:56:17.818Z,19.73
2022-11-27T08:01:13.948Z,19.13
2022-11-27T08:06:15.738Z,16.93
2022-11-27T08:11:19.380Z,17.97
2022-11-27T08:16:13.092Z,18.70
2022-11-27T08:21:07.036Z,19.47
2022-11-27T08:26:00.332Z,17.37
2022-11-27T08:30:59.741Z,19.40
2022-11-27T08:35:53.291Z,22.97
2022-11-27T08:40:46.907Z,19.03
2022-11-27T08:45:41.184Z,25.43
2022-11-27T08:50:35.913Z,20.00
2022-11-27T08:55:29.287Z,18.80
2022-11-27T09:00:27.953Z,18.90
2022-11-27T09:05:21.702Z,18.37
2022-11-27T09:10:16.435Z,21.97
2022-11-27T09:15:11.061Z,21.03
2022-11-27T09:20:04.793Z,21.07
2022-11-27T09:24:58.184Z,20.83
2022-11-27T09:29:53.037Z,19.30
2022-11-27T09:34:46.376Z,22.10
2022-11-27T09:39:39.670Z,16.60
2022-11-27T09:44:40.922Z,19.03
2022-11-27T09:49:45.130Z,20.37
2022-11-27T09:54:49.448Z,21.93
2022-11-27T09:59:51.641Z,18.47
2022-11-27T10:05:06.251Z,19.07
2022-11-27T10:10:40.064Z,21.73
2022-11-27T10:15:43.636Z,16.53
2022-11-27T10:20:47.323Z,21.10
2022-11-27T10:25:46.709Z,18.93
2022-11-27T10:30:55.375Z,18.23
2022-11-27T10:35:52.160Z,17.47
2022-11-27T10:40:55.391Z,15.70
2022-11-27T10:45:54.515Z,17.03
2022-11-27T10:50:49.809Z,15.50
2022-11-27T11:00:39.315Z,14.07
2022-11-27T11:10:54.693Z,14.07
2022-11-27T11:21:07.111Z,14.10
2022-11-27T11:26:08.783Z,15.60
2022-11-27T11:31:09.142Z,18.57
2022-11-27T11:36:12.444Z,20.07
2022-11-27T11:41:09.654Z,16.53
2022-11-27T11:46:22.634Z,16.47
2022-11-27T11:51:30.806Z,13.10
2022-11-27T11:56:33.350Z,12.07
2022-11-27T12:02:06.087Z,11.60
2022-11-27T12:07:16.257Z,13.03
2022-11-27T12:12:30.650Z,15.23
2022-11-27T12:17:45.740Z,12.53
2022-11-27T12:23:21.051Z,13.13
2022-11-27T12:28:42.685Z,11.93
2022-11-27T12:33:56.526Z,13.27
2022-11-27T12:39:13.527Z,12.20
2022-11-27T12:44:21.346Z,11.67
2022-11-27T12:49:24.197Z,12.97
2022-11-27T12:54:26.743Z,22.43
2022-11-27T12:59:33.255Z,10.20
2022-11-27T13:04:36.981Z,13.23
2022-11-27T13:09:43.806Z,11.50
2022-11-27T13:14:42.804Z,11.47
2022-11-27T13:19:44.765Z,12.83
2022-11-27T13:24:38.694Z,10.33
2022-11-27T13:29:43.284Z,18.67
2022-11-27T13:34:47.795Z,21.13
2022-11-27T13:39:43.712Z,11.90
2022-11-27T13:44:44.341Z,10.43
2022-11-27T13:49:39.128Z,11.33
2022-11-27T13:54:39.885Z,12.53
2022-11-27T13:59:37.984Z,11.23
2022-11-27T14:04:36.491Z,15.20
2022-11-27T14:09:42.814Z,11.20
2022-11-27T14:14:37.411Z,15.10
2022-11-27T14:19:38.448Z,15.43
2022-11-27T14:24:44.188Z,16.17
2022-11-27T14:29:37.898Z,15.00
2022-11-27T14:34:34.996Z,13.27
2022-11-27T14:39:35.224Z,15.67
2022-11-27T14:44:29.272Z,13.23
2022-11-27T14:49:25.932Z,12.07
2022-11-27T14:54:26.824Z,14.27
2022-11-27T14:59:23.354Z,12.60
2022-11-27T15:04:29.158Z,14.53
2022-11-27T15:09:43.298Z,14.30
2022-11-27T15:14:37.421Z,11.47
2022-11-27T15:19:37.962Z,12.17
2022-11-27T15:24:36.308Z,14.03
2022-11-27T15:29:37.845Z,13.90
2022-11-27T15:34:34.689Z,17.47
2022-11-27T15:39:37.394Z,16.50
2022-11-27T15:44:33.683Z,14.33
2022-11-27T15:49:27.368Z,17.90
2022-11-27T15:54:20.904Z,13.33
2022-11-27T15:59:16.764Z,14.77
2022-11-27T16:04:10.252Z,15.03
2022-11-27T16:09:03.826Z,14.87
2022-11-27T16:13:57.846Z,14.83
2022-11-27T16:18:52.611Z,14.77
2022-11-27T16:23:46.279Z,14.10
2022-11-27T16:28:39.682Z,17.10
2022-11-27T16:33:33.926Z,14.50
2022-11-27T16:38:28.661Z,14.93
2022-11-27T16:43:22.261Z,13.80
2022-11-27T16:48:15.623Z,14.20
2022-11-27T16:53:08.975Z,13.50
2022-11-27T16:58:03.743Z,14.83
2022-11-27T17:02:57.118Z,15.50
2022-11-27T17:07:50.546Z,17.47
2022-11-27T17:12:44.001Z,17.27
2022-11-27T17:17:40.350Z,18.87
2022-11-27T17:22:33.751Z,17.20
2022-11-27T17:27:27.121Z,15.93
2022-11-27T17:32:20.465Z,15.20
2022-11-27T17:37:15.291Z,15.63
2022-11-27T17:42:12.942Z,15.07
2022-11-27T17:47:07.938Z,16.67
2022-11-27T17:52:06.123Z,17.07
2022-11-27T17:57:01.450Z,15.23
2022-11-27T18:01:54.888Z,14.97
2022-11-27T18:06:48.264Z,19.87
2022-11-27T18:11:41.600Z,20.97
2022-11-27T18:16:39.362Z,22.93
2022-11-27T18:21:33.088Z,19.63
2022-11-27T18:26:45.329Z,17.30
2022-11-27T18:31:43.613Z,18.63
2022-11-27T18:36:37.059Z,17.30
2022-11-27T18:41:30.661Z,20.80
2022-11-27T18:46:24.125Z,18.90
2022-11-27T18:51:22.289Z,17.27
2022-11-27T18:56:19.654Z,18.03
2022-11-27T19:01:15.968Z,18.13
2022-11-27T19:06:11.853Z,19.33
2022-11-27T19:11:11.135Z,20.00
2022-11-27T19:16:08.124Z,19.83
2022-11-27T19:21:01.890Z,18.97
2022-11-27T19:25:55.763Z,17.83
2022-11-27T19:30:50.618Z,17.37
2022-11-27T19:35:44.481Z,21.83
2022-11-27T19:40:38.946Z,20.07
2022-11-27T19:45:33.834Z,17.17
2022-11-27T19:50:29.056Z,19.77
2022-11-27T19:55:22.936Z,18.77
2022-11-27T20:00:18.155Z,17.00
2022-11-27T20:05:12.117Z,18.27
2022-11-27T20:10:08.609Z,16.97
2022-11-27T20:15:02.359Z,16.50
2022-11-27T20:19:56.138Z,18.33
2022-11-27T20:25:11.615Z,17.53
2022-11-27T20:30:06.743Z,15.90
2022-11-27T20:35:00.885Z,16.63
2022-11-27T20:39:55.119Z,17.47
2022-11-27T20:44:48.982Z,15.63
2022-11-27T20:49:44.328Z,17.33
2022-11-27T20:54:38.050Z,27.70
2022-11-27T20:59:31.754Z,42.60
2022-11-27T21:04:27.619Z,18.60
2022-11-27T21:09:23.012Z,18.23
2022-11-27T21:14:18.216Z,21.47
2022-11-27T21:19:17.419Z,16.70
2022-11-27T21:24:11.450Z,15.97
2022-11-27T21:29:06.270Z,18.67
2022-11-27T21:34:03.969Z,18.60
2022-11-27T21:38:59.518Z,17.87
2022-11-27T21:43:57.406Z,16.63
2022-11-27T21:48:56.186Z,17.27
2022-11-27T21:53:51.962Z,17.60
2022-11-27T21:58:45.419Z,19.00
2022-11-27T22:03:42.582Z,17.00
2022-11-27T22:08:38.203Z,15.30
2022-11-27T22:13:31.582Z,17.43
2022-11-27T22:18:24.879Z,15.53
2022-11-27T22:23:18.228Z,15.47
2022-11-27T22:28:12.988Z,20.73
2022-11-27T22:33:06.442Z,15.50
2022-11-27T22:37:59.749Z,18.27
2022-11-27T22:42:53.056Z,18.67
2022-11-27T22:47:47.733Z,18.17
2022-11-27T22:52:41.085Z,18.67
2022-11-27T22:57:35.412Z,18.80
2022-11-27T23:02:28.828Z,16.73
2022-11-27T23:07:25.282Z,20.37
2022-11-27T23:12:18.881Z,18.47
2022-11-27T23:17:12.251Z,20.57
2022-11-27T23:22:05.639Z,21.43
2022-11-27T23:27:00.389Z,21.67
2022-11-27T23:31:53.741Z,22.73
2022-11-27T23:36:47.136Z,22.23
2022-11-27T23:41:40.906Z,20.57
2022-11-27T23:46:35.617Z,21.50
2022-11-27T23:51:31.268Z,21.13
2022-11-27T23:56:28.488Z,20.03
